Aragon, GA

2:50 PM EDT on May 05, 2015 (GMT -0400)
Lindale | | Change Station
CLOSE
Current Station
Personal Weather Station
Location: Lindale, GA
Elevation: 780 ft
Nearby Weather Stations

Elev 780 ft 34.16 °N, 85.18 °W | Updated 6 seconds ago

Clear
Clear
81.8 °F
Feels Like 82 °F
N
0.0
Wind Variable Wind from NNE
Gusts 3.0 mph

Today
High -- | Low -- °F
--% Chance of Precip.
Yesterday
High -- | Low -- °F
Precip. -- in
6:47 AM 8:27 PM
Full, 97% visible
Pressure 30.29 in
Visibility 10.0 miles
Clouds Scattered Clouds 5000 ft
Mostly Cloudy 7500 ft
Mostly Cloudy 8500 ft
Heat Index 82 °F
Dew Point 57 °F
Humidity 43%
Rainfall 0.00 in
Snow Depth Not available.
UV 6 out of 12
Pollen 7.90 out of 12
Air Quality Not available.
Flu Activity Sporadic
METAR KPUJ 051835Z AUTO 06003KT 10SM SCT050 BKN075 BKN085 26/14 A3029 RMK AO2

More Conditions Fewer Conditions

Pressure 30.29 in
Visibility 10.0 miles
Clouds Scattered Clouds 5000 ft
Mostly Cloudy 7500 ft
Mostly Cloudy 8500 ft
Heat Index 82 °F
Dew Point 57 °F
Humidity 43%
Rainfall 0.00 in
Snow Depth Not available.
UV 6 out of 12
Pollen 7.90 out of 12
Air Quality Not available.
Flu Activity Sporadic
METAR KPUJ 051835Z AUTO 06003KT 10SM SCT050 BKN075 BKN085 26/14 A3029 RMK AO2

More Conditions Fewer Conditions

10-Day Weather Forecast

Almanac

Astronomy

May. 05, 2015 Rise Set
Actual Time
Civil Twilight
Nautical Twilight
Astronomical Twilight
Moon
Length of Visible Light
Length of Day
Tomorrow will be .
, % of the Moon is Illuminated

Today's Extremes

State Highs State Lows

Community

WunderPhotos

Upload Photos

1,818,953 photos uploaded!

WunderBlogs® & News

Nearby

Air Quality

  Air Quality AQ Index Pollutant
Not available.

Snow Depth

Station Depth Elevation

Earthquake Activity

City Distance Mag. Time & Date
Minimum magnitude displayed is 2.5.

Coastal Water Temperatures

Place Temperature

Stations

Nearby Weather Stations

Station Location Temp. Windchill Dew Point Humidity Wind Precip. Elev Updated Type